sensor_id;sensor_type;location;lat;lon;timestamp;P1;durP1;ratioP1;P2;durP2;ratioP2
17173;SDS011;8702;48.130;-1.696;2023-02-15T00:00:33;28.67;;;25.60;;
17173;SDS011;8702;48.130;-1.696;2023-02-15T00:03:02;30.97;;;27.23;;
17173;SDS011;8702;48.130;-1.696;2023-02-15T00:05:30;29.03;;;25.93;;
17173;SDS011;8702;48.130;-1.696;2023-02-15T00:07:57;33.03;;;27.93;;
17173;SDS011;8702;48.130;-1.696;2023-02-15T00:10:24;29.90;;;26.70;;
17173;SDS011;8702;48.130;-1.696;2023-02-15T00:12:51;30.50;;;26.67;;
17173;SDS011;8702;48.130;-1.696;2023-02-15T00:15:18;29.87;;;26.73;;
17173;SDS011;8702;48.130;-1.696;2023-02-15T00:17:45;30.10;;;26.80;;
17173;SDS011;8702;48.130;-1.696;2023-02-15T00:20:14;29.33;;;25.77;;
17173;SDS011;8702;48.130;-1.696;2023-02-15T00:22:41;30.20;;;26.90;;
17173;SDS011;8702;48.130;-1.696;2023-02-15T00:25:08;31.33;;;25.67;;
17173;SDS011;8702;48.130;-1.696;2023-02-15T00:27:35;29.63;;;26.43;;
17173;SDS011;8702;48.130;-1.696;2023-02-15T00:30:03;29.20;;;26.03;;
17173;SDS011;8702;48.130;-1.696;2023-02-15T00:32:30;29.53;;;26.43;;
17173;SDS011;8702;48.130;-1.696;2023-02-15T00:34:58;28.77;;;25.77;;
17173;SDS011;8702;48.130;-1.696;2023-02-15T00:37:26;30.70;;;25.60;;
17173;SDS011;8702;48.130;-1.696;2023-02-15T00:39:53;30.10;;;26.40;;
17173;SDS011;8702;48.130;-1.696;2023-02-15T00:42:23;28.23;;;25.33;;
17173;SDS011;8702;48.130;-1.696;2023-02-15T00:44:50;28.23;;;25.27;;
17173;SDS011;8702;48.130;-1.696;2023-02-15T00:47:17;28.60;;;25.60;;
17173;SDS011;8702;48.130;-1.696;2023-02-15T00:49:45;28.63;;;24.83;;
17173;SDS011;8702;48.130;-1.696;2023-02-15T00:52:12;27.77;;;24.63;;
17173;SDS011;8702;48.130;-1.696;2023-02-15T00:54:40;29.47;;;25.80;;
17173;SDS011;8702;48.130;-1.696;2023-02-15T00:57:07;28.37;;;25.40;;
17173;SDS011;8702;48.130;-1.696;2023-02-15T00:59:35;28.00;;;25.00;;
17173;SDS011;8702;48.130;-1.696;2023-02-15T01:02:02;28.97;;;25.00;;
17173;SDS011;8702;48.130;-1.696;2023-02-15T01:04:29;28.33;;;25.33;;
17173;SDS011;8702;48.130;-1.696;2023-02-15T01:06:56;27.73;;;24.93;;
17173;SDS011;8702;48.130;-1.696;2023-02-15T01:09:23;27.13;;;24.27;;
17173;SDS011;8702;48.130;-1.696;2023-02-15T01:11:52;29.43;;;24.30;;
17173;SDS011;8702;48.130;-1.696;2023-02-15T01:14:19;28.43;;;23.77;;
17173;SDS011;8702;48.130;-1.696;2023-02-15T01:16:46;26.63;;;23.83;;
17173;SDS011;8702;48.130;-1.696;2023-02-15T01:19:14;27.17;;;24.07;;
17173;SDS011;8702;48.130;-1.696;2023-02-15T01:21:41;29.07;;;25.00;;
17173;SDS011;8702;48.130;-1.696;2023-02-15T01:24:10;29.17;;;23.60;;
17173;SDS011;8702;48.130;-1.696;2023-02-15T01:26:38;26.97;;;23.77;;
17173;SDS011;8702;48.130;-1.696;2023-02-15T01:29:06;26.37;;;23.67;;
17173;SDS011;8702;48.130;-1.696;2023-02-15T01:31:33;26.43;;;23.63;;
17173;SDS011;8702;48.130;-1.696;2023-02-15T01:34:01;27.23;;;24.33;;
17173;SDS011;8702;48.130;-1.696;2023-02-15T01:36:28;26.30;;;23.47;;
17173;SDS011;8702;48.130;-1.696;2023-02-15T01:38:56;27.53;;;24.63;;
17173;SDS011;8702;48.130;-1.696;2023-02-15T01:41:25;26.47;;;23.70;;
17173;SDS011;8702;48.130;-1.696;2023-02-15T01:43:53;25.97;;;23.27;;
17173;SDS011;8702;48.130;-1.696;2023-02-15T01:46:24;26.27;;;23.67;;
17173;SDS011;8702;48.130;-1.696;2023-02-15T01:48:55;26.23;;;23.43;;
17173;SDS011;8702;48.130;-1.696;2023-02-15T01:51:24;26.83;;;23.97;;
17173;SDS011;8702;48.130;-1.696;2023-02-15T01:53:55;25.10;;;21.83;;
17173;SDS011;8702;48.130;-1.696;2023-02-15T01:56:26;26.10;;;23.37;;
17173;SDS011;8702;48.130;-1.696;2023-02-15T01:58:54;26.30;;;23.50;;
17173;SDS011;8702;48.130;-1.696;2023-02-15T02:01:25;25.20;;;22.50;;
17173;SDS011;8702;48.130;-1.696;2023-02-15T02:03:54;24.73;;;22.13;;
17173;SDS011;8702;48.130;-1.696;2023-02-15T02:06:24;25.03;;;22.43;;
17173;SDS011;8702;48.130;-1.696;2023-02-15T02:08:52;24.87;;;22.27;;
17173;SDS011;8702;48.130;-1.696;2023-02-15T02:11:20;24.53;;;21.93;;
17173;SDS011;8702;48.130;-1.696;2023-02-15T02:13:47;26.40;;;23.60;;
17173;SDS011;8702;48.130;-1.696;2023-02-15T02:16:16;25.40;;;22.67;;
17173;SDS011;8702;48.130;-1.696;2023-02-15T02:18:53;24.70;;;22.10;;
17173;SDS011;8702;48.130;-1.696;2023-02-15T02:21:37;24.80;;;22.13;;
17173;SDS011;8702;48.130;-1.696;2023-02-15T02:24:14;24.37;;;21.90;;
17173;SDS011;8702;48.130;-1.696;2023-02-15T02:27:00;25.73;;;21.27;;
17173;SDS011;8702;48.130;-1.696;2023-02-15T02:35:23;25.17;;;22.50;;
17173;SDS011;8702;48.130;-1.696;2023-02-15T02:37:54;23.90;;;21.40;;
17173;SDS011;8702;48.130;-1.696;2023-02-15T02:40:25;24.37;;;21.97;;
17173;SDS011;8702;48.130;-1.696;2023-02-15T02:42:54;24.77;;;22.17;;
17173;SDS011;8702;48.130;-1.696;2023-02-15T02:45:24;24.87;;;22.30;;
17173;SDS011;8702;48.130;-1.696;2023-02-15T02:47:53;25.07;;;22.37;;
17173;SDS011;8702;48.130;-1.696;2023-02-15T02:50:23;23.03;;;20.63;;
17173;SDS011;8702;48.130;-1.696;2023-02-15T02:52:53;24.07;;;21.57;;
17173;SDS011;8702;48.130;-1.696;2023-02-15T02:55:21;23.47;;;20.97;;
17173;SDS011;8702;48.130;-1.696;2023-02-15T02:57:52;24.47;;;21.97;;
17173;SDS011;8702;48.130;-1.696;2023-02-15T03:00:21;24.03;;;21.43;;
17173;SDS011;8702;48.130;-1.696;2023-02-15T03:02:50;23.17;;;20.67;;
17173;SDS011;8702;48.130;-1.696;2023-02-15T03:05:18;25.57;;;21.60;;
17173;SDS011;8702;48.130;-1.696;2023-02-15T03:07:48;24.77;;;22.17;;
17173;SDS011;8702;48.130;-1.696;2023-02-15T03:10:16;26.17;;;22.27;;
17173;SDS011;8702;48.130;-1.696;2023-02-15T03:12:44;24.20;;;21.60;;
17173;SDS011;8702;48.130;-1.696;2023-02-15T03:15:12;25.13;;;22.53;;
17173;SDS011;8702;48.130;-1.696;2023-02-15T03:17:42;23.83;;;21.37;;
17173;SDS011;8702;48.130;-1.696;2023-02-15T03:20:12;23.67;;;21.10;;
17173;SDS011;8702;48.130;-1.696;2023-02-15T03:22:42;22.27;;;19.93;;
17173;SDS011;8702;48.130;-1.696;2023-02-15T03:25:13;24.93;;;22.33;;
17173;SDS011;8702;48.130;-1.696;2023-02-15T03:27:42;23.47;;;20.27;;
17173;SDS011;8702;48.130;-1.696;2023-02-15T03:30:10;23.87;;;21.17;;
17173;SDS011;8702;48.130;-1.696;2023-02-15T03:32:38;24.50;;;21.00;;
17173;SDS011;8702;48.130;-1.696;2023-02-15T03:35:06;25.17;;;22.53;;
17173;SDS011;8702;48.130;-1.696;2023-02-15T03:37:35;24.57;;;21.97;;
17173;SDS011;8702;48.130;-1.696;2023-02-15T03:40:04;24.83;;;22.33;;
17173;SDS011;8702;48.130;-1.696;2023-02-15T03:42:51;25.13;;;22.20;;
17173;SDS011;8702;48.130;-1.696;2023-02-15T03:45:22;24.90;;;21.83;;
17173;SDS011;8702;48.130;-1.696;2023-02-15T03:47:51;24.23;;;21.73;;
17173;SDS011;8702;48.130;-1.696;2023-02-15T03:50:20;25.33;;;22.40;;
17173;SDS011;8702;48.130;-1.696;2023-02-15T03:53:06;28.90;;;23.07;;
17173;SDS011;8702;48.130;-1.696;2023-02-15T03:55:34;24.50;;;22.00;;
17173;SDS011;8702;48.130;-1.696;2023-02-15T03:58:03;25.17;;;21.63;;
17173;SDS011;8702;48.130;-1.696;2023-02-15T04:00:49;23.43;;;20.90;;
17173;SDS011;8702;48.130;-1.696;2023-02-15T04:03:36;25.40;;;20.67;;
17173;SDS011;8702;48.130;-1.696;2023-02-15T04:06:05;22.37;;;20.13;;
17173;SDS011;8702;48.130;-1.696;2023-02-15T04:08:33;23.53;;;21.20;;
17173;SDS011;8702;48.130;-1.696;2023-02-15T04:11:17;23.10;;;20.70;;
17173;SDS011;8702;48.130;-1.696;2023-02-15T04:13:46;23.80;;;21.23;;
17173;SDS011;8702;48.130;-1.696;2023-02-15T04:16:21;23.73;;;21.23;;
17173;SDS011;8702;48.130;-1.696;2023-02-15T04:18:47;23.17;;;20.73;;
17173;SDS011;8702;48.130;-1.696;2023-02-15T04:21:32;21.67;;;19.57;;
17173;SDS011;8702;48.130;-1.696;2023-02-15T04:24:17;22.97;;;20.57;;
17173;SDS011;8702;48.130;-1.696;2023-02-15T04:27:02;23.37;;;20.87;;
17173;SDS011;8702;48.130;-1.696;2023-02-15T04:29:31;23.60;;;21.10;;
17173;SDS011;8702;48.130;-1.696;2023-02-15T04:31:59;25.63;;;22.03;;
17173;SDS011;8702;48.130;-1.696;2023-02-15T04:34:27;23.07;;;20.50;;
17173;SDS011;8702;48.130;-1.696;2023-02-15T04:36:54;24.10;;;21.60;;
17173;SDS011;8702;48.130;-1.696;2023-02-15T04:39:21;23.07;;;20.73;;
17173;SDS011;8702;48.130;-1.696;2023-02-15T04:41:48;24.40;;;21.00;;
17173;SDS011;8702;48.130;-1.696;2023-02-15T04:44:15;24.23;;;20.73;;
17173;SDS011;8702;48.130;-1.696;2023-02-15T04:46:44;25.07;;;21.33;;
17173;SDS011;8702;48.130;-1.696;2023-02-15T04:49:11;22.20;;;19.80;;
17173;SDS011;8702;48.130;-1.696;2023-02-15T04:51:38;23.23;;;20.90;;
17173;SDS011;8702;48.130;-1.696;2023-02-15T04:54:05;23.50;;;21.00;;
17173;SDS011;8702;48.130;-1.696;2023-02-15T04:56:32;21.73;;;19.63;;
17173;SDS011;8702;48.130;-1.696;2023-02-15T04:59:02;23.97;;;20.57;;
17173;SDS011;8702;48.130;-1.696;2023-02-15T05:01:30;23.73;;;20.47;;
17173;SDS011;8702;48.130;-1.696;2023-02-15T05:03:58;22.73;;;20.43;;
17173;SDS011;8702;48.130;-1.696;2023-02-15T05:06:25;22.53;;;19.73;;
17173;SDS011;8702;48.130;-1.696;2023-02-15T05:08:52;22.37;;;20.13;;
17173;SDS011;8702;48.130;-1.696;2023-02-15T05:11:20;23.10;;;20.70;;
17173;SDS011;8702;48.130;-1.696;2023-02-15T05:13:47;23.23;;;20.83;;
17173;SDS011;8702;48.130;-1.696;2023-02-15T05:16:14;21.93;;;19.60;;
17173;SDS011;8702;48.130;-1.696;2023-02-15T05:18:41;23.70;;;21.20;;
17173;SDS011;8702;48.130;-1.696;2023-02-15T05:21:10;23.63;;;21.17;;
17173;SDS011;8702;48.130;-1.696;2023-02-15T05:23:38;21.77;;;19.47;;
17173;SDS011;8702;48.130;-1.696;2023-02-15T05:26:06;22.23;;;19.90;;
17173;SDS011;8702;48.130;-1.696;2023-02-15T05:28:50;21.93;;;19.30;;
17173;SDS011;8702;48.130;-1.696;2023-02-15T05:31:18;23.47;;;20.27;;
17173;SDS011;8702;48.130;-1.696;2023-02-15T05:33:45;21.33;;;19.10;;
17173;SDS011;8702;48.130;-1.696;2023-02-15T05:36:14;20.13;;;18.03;;
17173;SDS011;8702;48.130;-1.696;2023-02-15T05:38:41;20.67;;;18.53;;
17173;SDS011;8702;48.130;-1.696;2023-02-15T05:41:09;22.10;;;19.53;;
17173;SDS011;8702;48.130;-1.696;2023-02-15T05:43:36;22.07;;;19.77;;
17173;SDS011;8702;48.130;-1.696;2023-02-15T05:46:04;22.40;;;19.00;;
17173;SDS011;8702;48.130;-1.696;2023-02-15T05:48:31;20.80;;;18.70;;
17173;SDS011;8702;48.130;-1.696;2023-02-15T05:50:58;22.63;;;20.33;;
17173;SDS011;8702;48.130;-1.696;2023-02-15T05:53:27;21.83;;;19.50;;
17173;SDS011;8702;48.130;-1.696;2023-02-15T05:55:55;20.97;;;18.10;;
17173;SDS011;8702;48.130;-1.696;2023-02-15T05:58:24;21.57;;;19.37;;
17173;SDS011;8702;48.130;-1.696;2023-02-15T06:00:51;22.90;;;19.37;;
17173;SDS011;8702;48.130;-1.696;2023-02-15T06:03:18;21.83;;;19.57;;
17173;SDS011;8702;48.130;-1.696;2023-02-15T06:05:45;21.67;;;19.37;;
17173;SDS011;8702;48.130;-1.696;2023-02-15T06:08:13;22.50;;;20.23;;
17173;SDS011;8702;48.130;-1.696;2023-02-15T06:10:41;22.83;;;20.30;;
17173;SDS011;8702;48.130;-1.696;2023-02-15T06:13:08;22.50;;;20.10;;
17173;SDS011;8702;48.130;-1.696;2023-02-15T06:15:36;23.03;;;19.37;;
17173;SDS011;8702;48.130;-1.696;2023-02-15T06:18:03;22.03;;;19.63;;
17173;SDS011;8702;48.130;-1.696;2023-02-15T06:20:30;22.97;;;20.43;;
17173;SDS011;8702;48.130;-1.696;2023-02-15T06:22:57;26.10;;;21.27;;
17173;SDS011;8702;48.130;-1.696;2023-02-15T06:25:24;22.70;;;20.30;;
17173;SDS011;8702;48.130;-1.696;2023-02-15T06:27:53;23.60;;;20.33;;
17173;SDS011;8702;48.130;-1.696;2023-02-15T06:30:20;25.63;;;20.47;;
17173;SDS011;8702;48.130;-1.696;2023-02-15T06:32:47;25.23;;;22.40;;
17173;SDS011;8702;48.130;-1.696;2023-02-15T06:35:14;24.10;;;21.07;;
17173;SDS011;8702;48.130;-1.696;2023-02-15T06:37:42;24.97;;;21.27;;
17173;SDS011;8702;48.130;-1.696;2023-02-15T06:40:11;27.67;;;21.37;;
17173;SDS011;8702;48.130;-1.696;2023-02-15T06:42:39;24.70;;;21.50;;
17173;SDS011;8702;48.130;-1.696;2023-02-15T06:45:08;23.90;;;20.93;;
17173;SDS011;8702;48.130;-1.696;2023-02-15T06:47:36;26.50;;;20.93;;
17173;SDS011;8702;48.130;-1.696;2023-02-15T06:50:03;22.90;;;20.00;;
17173;SDS011;8702;48.130;-1.696;2023-02-15T06:52:30;23.47;;;20.97;;
17173;SDS011;8702;48.130;-1.696;2023-02-15T06:54:58;26.10;;;20.93;;
17173;SDS011;8702;48.130;-1.696;2023-02-15T06:57:25;25.27;;;20.13;;
17173;SDS011;8702;48.130;-1.696;2023-02-15T06:59:52;21.90;;;19.60;;
17173;SDS011;8702;48.130;-1.696;2023-02-15T07:02:20;24.13;;;20.10;;
17173;SDS011;8702;48.130;-1.696;2023-02-15T07:04:48;22.43;;;20.10;;
17173;SDS011;8702;48.130;-1.696;2023-02-15T07:07:15;22.80;;;19.20;;
17173;SDS011;8702;48.130;-1.696;2023-02-15T07:09:42;21.67;;;19.37;;
17173;SDS011;8702;48.130;-1.696;2023-02-15T07:12:10;23.53;;;21.03;;
17173;SDS011;8702;48.130;-1.696;2023-02-15T07:14:54;23.10;;;19.50;;
17173;SDS011;8702;48.130;-1.696;2023-02-15T07:17:24;22.53;;;19.87;;
17173;SDS011;8702;48.130;-1.696;2023-02-15T07:19:53;27.27;;;20.60;;
17173;SDS011;8702;48.130;-1.696;2023-02-15T07:22:20;24.07;;;19.70;;
17173;SDS011;8702;48.130;-1.696;2023-02-15T07:24:47;25.23;;;20.63;;
17173;SDS011;8702;48.130;-1.696;2023-02-15T07:27:15;22.60;;;20.03;;
17173;SDS011;8702;48.130;-1.696;2023-02-15T07:29:42;23.30;;;20.67;;
17173;SDS011;8702;48.130;-1.696;2023-02-15T07:32:09;26.33;;;21.70;;
17173;SDS011;8702;48.130;-1.696;2023-02-15T07:34:38;22.07;;;19.77;;
17173;SDS011;8702;48.130;-1.696;2023-02-15T07:37:05;27.73;;;21.63;;
17173;SDS011;8702;48.130;-1.696;2023-02-15T07:39:32;29.53;;;22.43;;
17173;SDS011;8702;48.130;-1.696;2023-02-15T07:41:59;24.87;;;21.83;;
17173;SDS011;8702;48.130;-1.696;2023-02-15T07:44:26;27.13;;;22.33;;
17173;SDS011;8702;48.130;-1.696;2023-02-15T07:46:54;27.10;;;20.33;;
17173;SDS011;8702;48.130;-1.696;2023-02-15T07:49:21;30.43;;;21.57;;
17173;SDS011;8702;48.130;-1.696;2023-02-15T07:51:50;29.93;;;21.30;;
17173;SDS011;8702;48.130;-1.696;2023-02-15T07:54:17;25.23;;;20.87;;
17173;SDS011;8702;48.130;-1.696;2023-02-15T07:56:44;24.50;;;20.13;;
17173;SDS011;8702;48.130;-1.696;2023-02-15T07:59:11;26.63;;;21.40;;
17173;SDS011;8702;48.130;-1.696;2023-02-15T08:01:39;26.63;;;20.63;;
17173;SDS011;8702;48.130;-1.696;2023-02-15T08:04:06;26.73;;;21.23;;
17173;SDS011;8702;48.130;-1.696;2023-02-15T08:06:35;28.67;;;21.30;;
17173;SDS011;8702;48.130;-1.696;2023-02-15T08:09:04;27.73;;;21.17;;
17173;SDS011;8702;48.130;-1.696;2023-02-15T08:11:33;26.37;;;21.10;;
17173;SDS011;8702;48.130;-1.696;2023-02-15T08:14:03;24.83;;;20.23;;
17173;SDS011;8702;48.130;-1.696;2023-02-15T08:16:32;23.43;;;20.93;;
17173;SDS011;8702;48.130;-1.696;2023-02-15T08:19:00;24.83;;;21.60;;
17173;SDS011;8702;48.130;-1.696;2023-02-15T08:21:28;27.20;;;20.67;;
17173;SDS011;8702;48.130;-1.696;2023-02-15T08:23:56;31.13;;;20.50;;
17173;SDS011;8702;48.130;-1.696;2023-02-15T08:26:25;24.23;;;19.93;;
17173;SDS011;8702;48.130;-1.696;2023-02-15T08:28:53;29.60;;;22.17;;
17173;SDS011;8702;48.130;-1.696;2023-02-15T08:31:20;27.70;;;21.13;;
17173;SDS011;8702;48.130;-1.696;2023-02-15T08:33:48;24.30;;;20.17;;
17173;SDS011;8702;48.130;-1.696;2023-02-15T08:36:16;34.63;;;19.83;;
17173;SDS011;8702;48.130;-1.696;2023-02-15T08:38:44;27.10;;;20.93;;
17173;SDS011;8702;48.130;-1.696;2023-02-15T08:41:12;23.27;;;18.53;;
17173;SDS011;8702;48.130;-1.696;2023-02-15T08:43:41;22.90;;;20.43;;
17173;SDS011;8702;48.130;-1.696;2023-02-15T08:46:09;28.23;;;20.67;;
17173;SDS011;8702;48.130;-1.696;2023-02-15T08:48:36;28.20;;;20.07;;
17173;SDS011;8702;48.130;-1.696;2023-02-15T08:51:04;25.60;;;19.60;;
17173;SDS011;8702;48.130;-1.696;2023-02-15T08:53:32;23.37;;;19.50;;
17173;SDS011;8702;48.130;-1.696;2023-02-15T08:55:59;25.93;;;20.30;;
17173;SDS011;8702;48.130;-1.696;2023-02-15T08:58:28;26.80;;;19.57;;
17173;SDS011;8702;48.130;-1.696;2023-02-15T09:00:57;23.87;;;19.00;;
17173;SDS011;8702;48.130;-1.696;2023-02-15T09:03:24;26.80;;;19.43;;
17173;SDS011;8702;48.130;-1.696;2023-02-15T09:05:56;28.40;;;19.10;;
17173;SDS011;8702;48.130;-1.696;2023-02-15T09:08:23;24.77;;;19.47;;
17173;SDS011;8702;48.130;-1.696;2023-02-15T09:10:52;26.10;;;19.53;;
17173;SDS011;8702;48.130;-1.696;2023-02-15T09:13:19;27.20;;;20.00;;
17173;SDS011;8702;48.130;-1.696;2023-02-15T09:15:46;23.03;;;18.87;;
17173;SDS011;8702;48.130;-1.696;2023-02-15T09:18:15;24.00;;;18.83;;
17173;SDS011;8702;48.130;-1.696;2023-02-15T09:20:42;32.33;;;19.80;;
17173;SDS011;8702;48.130;-1.696;2023-02-15T09:23:10;26.67;;;19.90;;
17173;SDS011;8702;48.130;-1.696;2023-02-15T09:25:40;24.37;;;19.37;;
17173;SDS011;8702;48.130;-1.696;2023-02-15T09:28:08;21.10;;;18.63;;
17173;SDS011;8702;48.130;-1.696;2023-02-15T09:30:35;26.57;;;19.60;;
17173;SDS011;8702;48.130;-1.696;2023-02-15T09:33:02;24.70;;;19.53;;
17173;SDS011;8702;48.130;-1.696;2023-02-15T09:35:31;25.53;;;20.47;;
17173;SDS011;8702;48.130;-1.696;2023-02-15T09:37:59;26.53;;;19.23;;
17173;SDS011;8702;48.130;-1.696;2023-02-15T09:40:26;21.87;;;17.70;;
17173;SDS011;8702;48.130;-1.696;2023-02-15T09:43:00;20.20;;;18.00;;
17173;SDS011;8702;48.130;-1.696;2023-02-15T09:45:31;20.57;;;17.83;;
17173;SDS011;8702;48.130;-1.696;2023-02-15T09:48:15;20.23;;;18.03;;
17173;SDS011;8702;48.130;-1.696;2023-02-15T09:50:49;22.37;;;17.47;;
17173;SDS011;8702;48.130;-1.696;2023-02-15T09:53:24;17.97;;;15.93;;
17173;SDS011;8702;48.130;-1.696;2023-02-15T09:55:55;20.13;;;16.57;;
17173;SDS011;8702;48.130;-1.696;2023-02-15T09:58:24;18.13;;;16.17;;
17173;SDS011;8702;48.130;-1.696;2023-02-15T10:00:56;23.73;;;15.53;;
17173;SDS011;8702;48.130;-1.696;2023-02-15T10:03:38;17.87;;;15.97;;
17173;SDS011;8702;48.130;-1.696;2023-02-15T10:06:16;21.23;;;16.90;;
17173;SDS011;8702;48.130;-1.696;2023-02-15T10:08:56;21.33;;;15.57;;
17173;SDS011;8702;48.130;-1.696;2023-02-15T10:11:26;18.47;;;15.97;;
17173;SDS011;8702;48.130;-1.696;2023-02-15T10:14:14;17.77;;;15.87;;
17173;SDS011;8702;48.130;-1.696;2023-02-15T10:16:45;18.17;;;15.47;;
17173;SDS011;8702;48.130;-1.696;2023-02-15T10:19:17;17.70;;;15.83;;
17173;SDS011;8702;48.130;-1.696;2023-02-15T10:21:54;16.33;;;14.73;;
17173;SDS011;8702;48.130;-1.696;2023-02-15T10:24:32;16.97;;;15.17;;
17173;SDS011;8702;48.130;-1.696;2023-02-15T10:27:03;17.87;;;15.97;;
17173;SDS011;8702;48.130;-1.696;2023-02-15T10:29:34;16.97;;;15.27;;
17173;SDS011;8702;48.130;-1.696;2023-02-15T10:32:05;21.13;;;16.37;;
17173;SDS011;8702;48.130;-1.696;2023-02-15T10:34:38;17.53;;;15.73;;
17173;SDS011;8702;48.130;-1.696;2023-02-15T10:39:53;18.40;;;16.33;;
17173;SDS011;8702;48.130;-1.696;2023-02-15T10:42:24;20.20;;;16.90;;
17173;SDS011;8702;48.130;-1.696;2023-02-15T10:44:58;19.50;;;17.20;;
17173;SDS011;8702;48.130;-1.696;2023-02-15T10:50:34;17.33;;;15.53;;
17173;SDS011;8702;48.130;-1.696;2023-02-15T10:55:49;26.97;;;16.97;;
17173;SDS011;8702;48.130;-1.696;2023-02-15T10:58:22;20.47;;;17.30;;
17173;SDS011;8702;48.130;-1.696;2023-02-15T11:00:52;21.27;;;16.93;;
17173;SDS011;8702;48.130;-1.696;2023-02-15T11:03:28;22.50;;;17.63;;
17173;SDS011;8702;48.130;-1.696;2023-02-15T11:06:00;19.53;;;17.37;;
17173;SDS011;8702;48.130;-1.696;2023-02-15T11:08:30;20.70;;;17.07;;
17173;SDS011;8702;48.130;-1.696;2023-02-15T11:10:59;19.40;;;16.57;;
17173;SDS011;8702;48.130;-1.696;2023-02-15T11:13:29;22.23;;;17.00;;
17173;SDS011;8702;48.130;-1.696;2023-02-15T11:15:59;18.73;;;16.00;;
17173;SDS011;8702;48.130;-1.696;2023-02-15T11:18:28;22.30;;;16.40;;
17173;SDS011;8702;48.130;-1.696;2023-02-15T11:21:00;20.10;;;15.47;;
17173;SDS011;8702;48.130;-1.696;2023-02-15T11:23:28;24.73;;;17.00;;
17173;SDS011;8702;48.130;-1.696;2023-02-15T11:25:56;19.50;;;16.63;;
17173;SDS011;8702;48.130;-1.696;2023-02-15T11:28:27;24.00;;;16.97;;
17173;SDS011;8702;48.130;-1.696;2023-02-15T11:30:56;18.13;;;16.13;;
17173;SDS011;8702;48.130;-1.696;2023-02-15T11:33:25;19.57;;;16.53;;
17173;SDS011;8702;48.130;-1.696;2023-02-15T11:35:53;20.87;;;16.60;;
17173;SDS011;8702;48.130;-1.696;2023-02-15T11:38:23;22.73;;;17.37;;
17173;SDS011;8702;48.130;-1.696;2023-02-15T11:40:54;18.27;;;16.17;;
17173;SDS011;8702;48.130;-1.696;2023-02-15T11:43:23;20.47;;;16.37;;
17173;SDS011;8702;48.130;-1.696;2023-02-15T11:45:54;19.87;;;15.57;;
17173;SDS011;8702;48.130;-1.696;2023-02-15T11:48:21;15.80;;;14.07;;
17173;SDS011;8702;48.130;-1.696;2023-02-15T11:50:48;18.40;;;15.97;;
17173;SDS011;8702;48.130;-1.696;2023-02-15T11:53:17;18.37;;;15.27;;
17173;SDS011;8702;48.130;-1.696;2023-02-15T11:55:46;16.97;;;15.17;;
17173;SDS011;8702;48.130;-1.696;2023-02-15T11:58:16;19.53;;;15.40;;
17173;SDS011;8702;48.130;-1.696;2023-02-15T12:00:49;18.73;;;15.27;;
17173;SDS011;8702;48.130;-1.696;2023-02-15T12:03:19;21.40;;;15.80;;
17173;SDS011;8702;48.130;-1.696;2023-02-15T12:05:49;17.53;;;15.73;;
17173;SDS011;8702;48.130;-1.696;2023-02-15T12:08:20;16.70;;;14.97;;
17173;SDS011;8702;48.130;-1.696;2023-02-15T12:10:55;16.67;;;15.07;;
17173;SDS011;8702;48.130;-1.696;2023-02-15T12:13:24;16.63;;;14.87;;
17173;SDS011;8702;48.130;-1.696;2023-02-15T12:15:52;18.47;;;15.47;;
17173;SDS011;8702;48.130;-1.696;2023-02-15T12:18:31;17.67;;;14.83;;
17173;SDS011;8702;48.130;-1.696;2023-02-15T12:21:00;18.70;;;15.37;;
17173;SDS011;8702;48.130;-1.696;2023-02-15T12:23:29;18.07;;;15.90;;
17173;SDS011;8702;48.130;-1.696;2023-02-15T12:25:58;17.90;;;15.97;;
17173;SDS011;8702;48.130;-1.696;2023-02-15T12:28:26;17.27;;;14.83;;
17173;SDS011;8702;48.130;-1.696;2023-02-15T12:30:57;17.20;;;15.00;;
17173;SDS011;8702;48.130;-1.696;2023-02-15T12:33:27;19.83;;;15.47;;
17173;SDS011;8702;48.130;-1.696;2023-02-15T12:35:56;17.73;;;15.50;;
17173;SDS011;8702;48.130;-1.696;2023-02-15T12:38:25;17.60;;;15.57;;
17173;SDS011;8702;48.130;-1.696;2023-02-15T12:40:56;18.63;;;15.47;;
17173;SDS011;8702;48.130;-1.696;2023-02-15T12:43:25;18.70;;;15.07;;
17173;SDS011;8702;48.130;-1.696;2023-02-15T12:45:52;17.97;;;14.43;;
17173;SDS011;8702;48.130;-1.696;2023-02-15T12:48:20;17.57;;;15.67;;
17173;SDS011;8702;48.130;-1.696;2023-02-15T12:50:49;20.13;;;16.00;;
17173;SDS011;8702;48.130;-1.696;2023-02-15T12:53:17;17.37;;;14.93;;
17173;SDS011;8702;48.130;-1.696;2023-02-15T12:55:53;19.77;;;15.20;;
17173;SDS011;8702;48.130;-1.696;2023-02-15T12:58:20;18.23;;;16.40;;
17173;SDS011;8702;48.130;-1.696;2023-02-15T13:01:00;18.80;;;15.00;;
17173;SDS011;8702;48.130;-1.696;2023-02-15T13:03:28;17.30;;;15.20;;
17173;SDS011;8702;48.130;-1.696;2023-02-15T13:05:57;17.33;;;15.53;;
17173;SDS011;8702;48.130;-1.696;2023-02-15T13:08:27;16.13;;;14.10;;
17173;SDS011;8702;48.130;-1.696;2023-02-15T13:10:56;15.23;;;13.20;;
17173;SDS011;8702;48.130;-1.696;2023-02-15T13:13:24;20.63;;;13.70;;
17173;SDS011;8702;48.130;-1.696;2023-02-15T13:15:53;16.43;;;13.77;;
17173;SDS011;8702;48.130;-1.696;2023-02-15T13:18:23;18.13;;;13.57;;
17173;SDS011;8702;48.130;-1.696;2023-02-15T13:20:54;14.70;;;13.23;;
17173;SDS011;8702;48.130;-1.696;2023-02-15T13:23:26;15.13;;;13.27;;
17173;SDS011;8702;48.130;-1.696;2023-02-15T13:25:54;19.63;;;14.07;;
17173;SDS011;8702;48.130;-1.696;2023-02-15T13:28:23;17.03;;;14.63;;
17173;SDS011;8702;48.130;-1.696;2023-02-15T13:30:51;18.27;;;13.63;;
17173;SDS011;8702;48.130;-1.696;2023-02-15T13:33:20;16.33;;;13.20;;
17173;SDS011;8702;48.130;-1.696;2023-02-15T13:35:55;16.73;;;14.47;;
17173;SDS011;8702;48.130;-1.696;2023-02-15T13:38:30;19.13;;;13.20;;
17173;SDS011;8702;48.130;-1.696;2023-02-15T13:41:04;15.73;;;13.63;;
17173;SDS011;8702;48.130;-1.696;2023-02-15T13:43:35;15.93;;;12.83;;
17173;SDS011;8702;48.130;-1.696;2023-02-15T13:46:07;15.73;;;13.23;;
17173;SDS011;8702;48.130;-1.696;2023-02-15T13:48:39;15.07;;;12.80;;
17173;SDS011;8702;48.130;-1.696;2023-02-15T13:51:11;18.27;;;13.13;;
17173;SDS011;8702;48.130;-1.696;2023-02-15T13:53:45;16.57;;;13.40;;
17173;SDS011;8702;48.130;-1.696;2023-02-15T13:56:16;17.93;;;12.13;;
17173;SDS011;8702;48.130;-1.696;2023-02-15T14:01:34;17.10;;;13.03;;
17173;SDS011;8702;48.130;-1.696;2023-02-15T14:07:07;14.67;;;11.50;;
17173;SDS011;8702;48.130;-1.696;2023-02-15T14:09:43;14.50;;;12.30;;
17173;SDS011;8702;48.130;-1.696;2023-02-15T14:12:26;14.40;;;12.87;;
17173;SDS011;8702;48.130;-1.696;2023-02-15T14:15:05;15.30;;;11.77;;
17173;SDS011;8702;48.130;-1.696;2023-02-15T14:17:40;13.83;;;11.77;;
17173;SDS011;8702;48.130;-1.696;2023-02-15T14:20:15;15.93;;;12.43;;
17173;SDS011;8702;48.130;-1.696;2023-02-15T14:22:44;12.93;;;11.67;;
17173;SDS011;8702;48.130;-1.696;2023-02-15T14:25:16;13.53;;;12.17;;
17173;SDS011;8702;48.130;-1.696;2023-02-15T14:27:48;13.43;;;11.97;;
17173;SDS011;8702;48.130;-1.696;2023-02-15T14:30:20;15.87;;;12.40;;
17173;SDS011;8702;48.130;-1.696;2023-02-15T14:32:48;13.93;;;11.70;;
17173;SDS011;8702;48.130;-1.696;2023-02-15T14:35:17;11.87;;;10.17;;
17173;SDS011;8702;48.130;-1.696;2023-02-15T14:37:46;12.77;;;11.10;;
17173;SDS011;8702;48.130;-1.696;2023-02-15T14:40:19;14.20;;;11.00;;
17173;SDS011;8702;48.130;-1.696;2023-02-15T14:43:09;13.47;;;11.43;;
17173;SDS011;8702;48.130;-1.696;2023-02-15T14:45:39;15.37;;;10.97;;
17173;SDS011;8702;48.130;-1.696;2023-02-15T14:48:09;14.37;;;11.50;;
17173;SDS011;8702;48.130;-1.696;2023-02-15T14:50:40;13.77;;;10.87;;
17173;SDS011;8702;48.130;-1.696;2023-02-15T14:59:11;16.10;;;10.83;;
17173;SDS011;8702;48.130;-1.696;2023-02-15T15:01:40;11.27;;;9.97;;